createdAt,value
2023-03-31T00:01:52.989Z,4.28
2023-03-31T00:04:24.576Z,3.33
2023-03-31T00:06:55.283Z,3.67
2023-03-31T00:09:24.752Z,3.37
2023-03-31T00:11:54.229Z,3.58
2023-03-31T00:14:24.102Z,4.03
2023-03-31T00:16:54.053Z,3.35
2023-03-31T00:19:23.533Z,3.30
2023-03-31T00:21:54.823Z,3.55
2023-03-31T00:24:24.605Z,3.62
2023-03-31T00:26:54.108Z,3.27
2023-03-31T00:29:23.601Z,3.40
2023-03-31T00:31:53.463Z,3.42
2023-03-31T00:34:25.002Z,3.77
2023-03-31T00:36:56.815Z,3.65
2023-03-31T00:39:28.581Z,3.75
2023-03-31T00:41:58.434Z,3.60
2023-03-31T00:44:30.653Z,3.62
2023-03-31T00:47:15.344Z,3.73
2023-03-31T00:49:53.739Z,3.52
2023-03-31T00:52:30.778Z,3.67
2023-03-31T00:55:03.703Z,3.42
2023-03-31T00:57:37.255Z,4.28
2023-03-31T01:00:16.720Z,4.45
2023-03-31T01:02:53.946Z,3.10
2023-03-31T01:05:28.508Z,3.22
2023-03-31T01:08:00.428Z,4.28
2023-03-31T01:10:33.094Z,3.67
2023-03-31T01:13:05.860Z,3.27
2023-03-31T01:15:35.755Z,3.25
2023-03-31T01:18:07.369Z,3.35
2023-03-31T01:20:52.105Z,3.80
2023-03-31T01:23:25.503Z,3.50
2023-03-31T01:28:52.933Z,3.55
2023-03-31T01:31:40.628Z,3.85
2023-03-31T01:34:32.086Z,3.65
2023-03-31T01:37:24.156Z,3.50
2023-03-31T01:40:09.836Z,3.80
2023-03-31T01:43:12.972Z,3.65
2023-03-31T01:46:05.044Z,3.83
2023-03-31T01:48:44.119Z,3.95
2023-03-31T01:51:16.684Z,3.37
2023-03-31T01:54:07.407Z,3.98
2023-03-31T01:56:39.961Z,4.37
2023-03-31T01:59:21.254Z,4.03
2023-03-31T02:02:05.868Z,4.10
2023-03-31T02:04:42.941Z,3.53
2023-03-31T02:07:19.055Z,3.70
2023-03-31T02:09:55.116Z,3.98
2023-03-31T02:12:27.384Z,3.90
2023-03-31T02:15:00.155Z,4.00
2023-03-31T02:17:34.038Z,3.67
2023-03-31T02:20:07.388Z,4.70
2023-03-31T02:22:40.653Z,4.40
2023-03-31T02:25:45.646Z,3.65
2023-03-31T02:28:19.193Z,3.65
2023-03-31T02:30:55.698Z,3.92
2023-03-31T02:33:25.333Z,4.28
2023-03-31T02:35:54.969Z,4.47
2023-03-31T02:38:24.632Z,4.28
2023-03-31T02:40:55.216Z,4.42
2023-03-31T02:43:24.779Z,4.00
2023-03-31T02:45:54.668Z,4.25
2023-03-31T02:48:27.140Z,3.92
2023-03-31T02:51:21.261Z,3.70
2023-03-31T02:54:18.021Z,3.62
2023-03-31T02:57:08.914Z,4.47
2023-03-31T02:59:51.050Z,4.20
2023-03-31T03:02:30.595Z,4.08
2023-03-31T03:05:08.659Z,4.08
2023-03-31T03:07:58.172Z,4.12
2023-03-31T03:10:37.028Z,4.20
2023-03-31T03:13:26.116Z,4.03
2023-03-31T03:16:13.923Z,4.20
2023-03-31T03:18:44.991Z,4.08
2023-03-31T03:21:14.457Z,4.03
2023-03-31T03:23:44.619Z,3.90
2023-03-31T03:26:14.097Z,4.62
2023-03-31T03:28:43.612Z,4.45
2023-03-31T03:31:13.983Z,4.60
2023-03-31T03:33:44.634Z,3.75
2023-03-31T03:36:14.805Z,4.37
2023-03-31T03:38:44.405Z,4.20
2023-03-31T03:41:14.622Z,4.35
2023-03-31T03:43:44.110Z,4.70
2023-03-31T03:46:13.640Z,5.35
2023-03-31T03:48:43.191Z,5.08
2023-03-31T03:51:12.682Z,4.83
2023-03-31T03:53:42.144Z,4.35
2023-03-31T03:56:11.790Z,4.28
2023-03-31T03:58:41.253Z,5.10
2023-03-31T04:01:10.961Z,4.87
2023-03-31T04:03:40.624Z,4.75
2023-03-31T04:06:10.140Z,4.78
2023-03-31T04:08:39.721Z,5.05
2023-03-31T04:11:20.002Z,5.05
2023-03-31T04:13:50.264Z,5.33
2023-03-31T04:16:19.780Z,5.47
2023-03-31T04:18:50.064Z,5.00
2023-03-31T04:21:25.721Z,5.50
2023-03-31T04:23:58.308Z,4.90
2023-03-31T04:26:34.544Z,5.33
2023-03-31T04:29:04.168Z,4.58
2023-03-31T04:31:35.966Z,4.83
2023-03-31T04:34:07.801Z,4.85
2023-03-31T04:36:38.936Z,4.95
2023-03-31T04:39:10.118Z,4.97
2023-03-31T04:41:39.604Z,5.15
2023-03-31T04:44:09.655Z,5.28
2023-03-31T04:46:39.300Z,4.97
2023-03-31T04:49:09.567Z,5.80
2023-03-31T04:51:39.105Z,5.12
2023-03-31T04:54:09.778Z,5.50
2023-03-31T04:56:39.313Z,4.58
2023-03-31T04:59:08.983Z,5.90
2023-03-31T05:01:39.302Z,5.10
2023-03-31T05:04:10.624Z,5.50
2023-03-31T05:06:40.244Z,5.40
2023-03-31T05:09:10.240Z,5.83
2023-03-31T05:11:40.008Z,5.40
2023-03-31T05:14:09.490Z,6.05
2023-03-31T05:16:39.282Z,6.17
2023-03-31T05:19:09.749Z,6.12
2023-03-31T05:21:39.699Z,5.87
2023-03-31T05:24:09.787Z,5.80
2023-03-31T05:26:41.151Z,5.65
2023-03-31T05:29:11.471Z,5.70
2023-03-31T05:31:41.039Z,5.62
2023-03-31T05:34:10.607Z,5.30
2023-03-31T05:36:40.785Z,6.15
2023-03-31T05:39:10.821Z,5.22
2023-03-31T05:41:40.386Z,5.62
2023-03-31T05:44:09.971Z,5.55
2023-03-31T05:46:39.532Z,5.22
2023-03-31T05:49:11.496Z,5.50
2023-03-31T05:51:41.303Z,5.67
2023-03-31T05:54:11.223Z,5.75
2023-03-31T05:56:40.817Z,6.35
2023-03-31T05:59:10.544Z,5.87
2023-03-31T06:01:40.423Z,5.65
2023-03-31T06:04:10.378Z,5.17
2023-03-31T06:06:40.172Z,5.15
2023-03-31T06:09:10.995Z,4.83
2023-03-31T06:11:40.634Z,4.92
2023-03-31T06:14:10.616Z,5.25
2023-03-31T06:16:40.692Z,4.83
2023-03-31T06:19:10.787Z,5.53
2023-03-31T06:21:40.391Z,4.92
2023-03-31T06:24:12.208Z,5.05
2023-03-31T06:26:42.632Z,5.40
2023-03-31T06:29:12.506Z,4.85
2023-03-31T06:31:42.019Z,4.10
2023-03-31T06:34:11.562Z,4.72
2023-03-31T06:36:42.626Z,4.97
2023-03-31T06:39:12.179Z,5.33
2023-03-31T06:41:41.649Z,4.35
2023-03-31T06:44:11.502Z,5.60
2023-03-31T06:46:41.160Z,5.97
2023-03-31T06:49:11.175Z,5.25
2023-03-31T06:51:40.836Z,5.90
2023-03-31T06:54:10.371Z,6.78
2023-03-31T06:56:40.000Z,6.95
2023-03-31T06:59:09.571Z,6.92
2023-03-31T07:01:39.319Z,5.95
2023-03-31T07:04:10.150Z,6.64
2023-03-31T07:06:39.638Z,6.15
2023-03-31T07:09:09.089Z,6.87
2023-03-31T07:11:38.611Z,6.25
2023-03-31T07:14:08.076Z,6.87
2023-03-31T07:16:37.582Z,6.75
2023-03-31T07:19:11.365Z,6.75
2023-03-31T07:21:41.775Z,7.53
2023-03-31T07:24:11.654Z,6.72
2023-03-31T07:26:41.205Z,5.85
2023-03-31T07:29:11.571Z,6.47
2023-03-31T07:31:42.032Z,6.08
2023-03-31T07:34:12.714Z,5.95
2023-03-31T07:36:42.282Z,6.35
2023-03-31T07:39:11.864Z,6.17
2023-03-31T07:41:42.151Z,5.55
2023-03-31T07:44:11.637Z,5.83
2023-03-31T07:46:41.818Z,5.70
2023-03-31T07:49:13.581Z,6.08
2023-03-31T07:51:43.886Z,6.12
2023-03-31T07:54:13.352Z,6.25
2023-03-31T07:56:42.981Z,5.87
2023-03-31T07:59:13.907Z,5.62
2023-03-31T08:01:43.595Z,6.33
2023-03-31T08:04:13.887Z,6.72
2023-03-31T08:06:43.707Z,6.03
2023-03-31T08:09:13.261Z,6.35
2023-03-31T08:11:43.438Z,5.92
2023-03-31T08:14:14.097Z,6.40
2023-03-31T08:16:43.828Z,6.67
2023-03-31T08:19:13.325Z,7.97
2023-03-31T08:21:43.768Z,7.80
2023-03-31T08:24:13.767Z,7.33
2023-03-31T08:26:43.306Z,8.35
2023-03-31T08:29:12.841Z,7.62
2023-03-31T08:31:42.914Z,7.50
2023-03-31T08:34:12.713Z,7.72
2023-03-31T08:36:42.956Z,8.95
2023-03-31T08:39:13.058Z,7.95
2023-03-31T08:41:45.716Z,8.23
2023-03-31T08:44:38.007Z,9.45
2023-03-31T08:47:11.371Z,7.97
2023-03-31T08:49:46.878Z,8.50
2023-03-31T08:52:19.892Z,8.37
2023-03-31T08:54:52.604Z,8.20
2023-03-31T08:57:31.753Z,8.58
2023-03-31T09:00:04.099Z,9.58
2023-03-31T09:02:37.055Z,9.33
2023-03-31T09:05:18.930Z,8.13
2023-03-31T09:08:07.032Z,8.18
2023-03-31T09:10:44.840Z,8.58
2023-03-31T09:13:26.415Z,8.88
2023-03-31T09:16:17.108Z,8.90
2023-03-31T09:18:50.021Z,9.25
2023-03-31T09:21:28.204Z,9.45
2023-03-31T09:24:06.968Z,8.83
2023-03-31T09:26:53.236Z,8.90
2023-03-31T09:29:41.969Z,9.23
2023-03-31T09:32:24.362Z,9.78
2023-03-31T09:34:58.159Z,9.10
2023-03-31T09:37:30.718Z,8.63
2023-03-31T09:40:05.974Z,8.90
2023-03-31T09:42:37.689Z,8.83
2023-03-31T09:45:09.051Z,10.10
2023-03-31T09:47:47.380Z,9.45
2023-03-31T09:50:19.041Z,9.63
2023-03-31T09:52:56.490Z,9.25
2023-03-31T09:55:40.385Z,8.70
2023-03-31T10:00:43.039Z,8.15
2023-03-31T10:05:52.319Z,8.73
2023-03-31T10:08:36.896Z,8.98
2023-03-31T10:11:09.905Z,9.48
2023-03-31T10:13:56.283Z,9.08
2023-03-31T10:16:31.442Z,8.77
2023-03-31T10:19:32.613Z,7.85
2023-03-31T10:22:17.324Z,8.45
2023-03-31T10:24:48.621Z,8.68
2023-03-31T10:27:24.224Z,8.58
2023-03-31T10:29:58.936Z,8.63
2023-03-31T10:32:34.013Z,8.13
2023-03-31T10:35:24.718Z,8.18
2023-03-31T10:37:57.335Z,7.42
2023-03-31T10:40:29.412Z,8.15
2023-03-31T10:43:20.578Z,8.23
2023-03-31T10:45:56.722Z,8.28
2023-03-31T10:48:32.153Z,9.13
2023-03-31T10:51:07.723Z,9.13
2023-03-31T10:53:46.736Z,8.68
2023-03-31T10:56:28.729Z,8.93
2023-03-31T10:59:07.045Z,8.38
2023-03-31T11:02:16.391Z,9.23
2023-03-31T11:05:13.057Z,9.75
2023-03-31T11:08:07.086Z,10.35
2023-03-31T11:10:55.987Z,11.10
2023-03-31T11:13:48.590Z,12.47
2023-03-31T11:16:42.609Z,10.67
2023-03-31T11:19:24.394Z,11.75
2023-03-31T11:21:57.059Z,10.15
2023-03-31T11:24:51.237Z,12.07
2023-03-31T11:27:41.250Z,11.00
2023-03-31T11:30:22.520Z,12.70
2023-03-31T11:33:13.448Z,12.33
2023-03-31T11:36:03.964Z,12.47
2023-03-31T11:38:42.373Z,12.03
2023-03-31T11:41:31.498Z,12.58
2023-03-31T11:44:04.769Z,12.30
2023-03-31T11:46:43.492Z,14.47
2023-03-31T11:49:19.047Z,12.15
2023-03-31T11:52:16.302Z,12.07
2023-03-31T11:54:57.780Z,12.78
2023-03-31T11:57:36.363Z,10.40
2023-03-31T12:00:10.622Z,10.08
2023-03-31T12:02:49.917Z,10.65
2023-03-31T12:05:22.380Z,9.98
2023-03-31T12:08:09.743Z,8.43
2023-03-31T12:10:42.456Z,7.37
2023-03-31T12:13:46.872Z,10.85
2023-03-31T12:16:19.965Z,7.97
2023-03-31T12:21:40.328Z,7.92
2023-03-31T12:24:13.990Z,8.25
2023-03-31T12:26:49.497Z,7.55
2023-03-31T12:29:34.044Z,7.95
2023-03-31T12:32:07.092Z,6.80
2023-03-31T12:34:39.681Z,7.92
2023-03-31T12:37:29.448Z,7.30
2023-03-31T12:40:20.046Z,8.20
2023-03-31T12:43:11.199Z,6.15
2023-03-31T12:45:46.438Z,6.55
2023-03-31T12:48:31.418Z,7.67
2023-03-31T12:51:18.837Z,8.28
2023-03-31T12:54:14.452Z,7.15
2023-03-31T12:57:11.414Z,7.62
2023-03-31T12:59:43.602Z,7.67
2023-03-31T13:02:18.891Z,7.50
2023-03-31T13:04:50.180Z,6.83
2023-03-31T13:07:31.987Z,6.30
2023-03-31T13:10:17.117Z,6.95
2023-03-31T13:13:02.074Z,7.20
2023-03-31T13:15:33.139Z,6.45
2023-03-31T13:18:08.407Z,6.72
2023-03-31T13:20:42.193Z,7.20
2023-03-31T13:23:26.252Z,6.78
2023-03-31T13:25:59.417Z,6.80
2023-03-31T13:28:34.610Z,7.57
2023-03-31T13:31:06.513Z,7.45
2023-03-31T13:33:47.647Z,6.08
2023-03-31T13:36:36.657Z,6.20
2023-03-31T13:39:30.706Z,6.65
2023-03-31T13:42:26.602Z,6.08
2023-03-31T13:45:17.235Z,6.78
2023-03-31T13:47:56.907Z,6.25
2023-03-31T13:50:48.138Z,5.85
2023-03-31T13:53:40.910Z,6.17
2023-03-31T13:56:31.399Z,6.37
2023-03-31T13:59:23.562Z,6.37
2023-03-31T14:02:28.091Z,6.25
2023-03-31T14:05:01.477Z,5.67
2023-03-31T14:10:04.387Z,5.62
2023-03-31T14:12:39.395Z,4.97
2023-03-31T14:15:12.717Z,5.17
2023-03-31T14:17:45.240Z,4.70
2023-03-31T14:20:42.679Z,4.67
2023-03-31T14:23:27.409Z,5.53
2023-03-31T14:26:11.990Z,5.45
2023-03-31T14:28:58.282Z,5.00
2023-03-31T14:31:33.192Z,4.87
2023-03-31T14:34:21.271Z,4.05
2023-03-31T14:37:03.379Z,4.35
2023-03-31T14:39:38.793Z,4.20
2023-03-31T14:42:14.263Z,4.85
2023-03-31T14:44:48.265Z,4.20
2023-03-31T14:47:26.926Z,4.22
2023-03-31T14:50:17.338Z,5.12
2023-03-31T14:52:53.307Z,4.15
2023-03-31T14:55:39.269Z,4.23
2023-03-31T14:58:03.014Z,3.65
2023-03-31T15:00:34.743Z,4.67
2023-03-31T15:03:07.066Z,4.55
2023-03-31T15:05:39.101Z,5.22
2023-03-31T15:08:24.046Z,4.20
2023-03-31T15:11:11.822Z,4.45
2023-03-31T15:13:36.650Z,4.92
2023-03-31T15:16:33.562Z,4.62
2023-03-31T15:19:06.370Z,3.95
2023-03-31T15:21:38.740Z,3.55
2023-03-31T15:24:09.297Z,3.65
2023-03-31T15:26:44.915Z,3.80
2023-03-31T15:29:21.756Z,4.62
2023-03-31T15:31:51.511Z,3.70
2023-03-31T15:34:26.374Z,4.90
2023-03-31T15:36:57.865Z,5.08
2023-03-31T15:39:30.223Z,4.05
2023-03-31T15:42:02.205Z,3.77
2023-03-31T15:44:38.560Z,4.30
2023-03-31T15:47:19.448Z,4.60
2023-03-31T15:49:54.983Z,4.95
2023-03-31T15:52:34.280Z,4.37
2023-03-31T15:55:23.411Z,4.30
2023-03-31T15:57:55.797Z,4.30
2023-03-31T16:00:47.370Z,4.62
2023-03-31T16:03:38.735Z,4.17
2023-03-31T16:06:32.316Z,4.53
2023-03-31T16:09:06.129Z,4.28
2023-03-31T16:11:44.855Z,4.40
2023-03-31T16:14:17.469Z,4.90
2023-03-31T16:16:50.842Z,4.40
2023-03-31T16:19:22.296Z,4.90
2023-03-31T16:21:56.113Z,4.80
2023-03-31T16:24:34.622Z,4.60
2023-03-31T16:27:07.205Z,5.35
2023-03-31T16:29:38.312Z,5.20
2023-03-31T16:32:19.512Z,5.67
2023-03-31T16:35:04.888Z,5.15
2023-03-31T16:37:35.128Z,4.83
2023-03-31T16:40:05.220Z,4.62
2023-03-31T16:42:34.766Z,5.75
2023-03-31T16:45:14.198Z,5.67
2023-03-31T16:47:38.777Z,4.60
2023-03-31T16:50:09.195Z,4.97
2023-03-31T16:52:39.058Z,6.08
2023-03-31T16:55:09.077Z,5.75
2023-03-31T16:57:38.558Z,5.15
2023-03-31T17:00:10.924Z,5.75
2023-03-31T17:02:40.475Z,5.67
2023-03-31T17:05:13.239Z,4.42
2023-03-31T17:07:41.920Z,5.67
2023-03-31T17:10:13.380Z,6.40
2023-03-31T17:12:43.098Z,6.37
2023-03-31T17:15:12.928Z,13.30
2023-03-31T17:17:42.827Z,12.00
2023-03-31T17:20:13.041Z,7.90
2023-03-31T17:22:42.574Z,9.60
2023-03-31T17:25:12.046Z,9.40
2023-03-31T17:27:41.706Z,7.05
2023-03-31T17:30:11.546Z,8.50
2023-03-31T17:32:41.460Z,7.30
2023-03-31T17:35:11.701Z,6.60
2023-03-31T17:37:41.887Z,5.77
2023-03-31T17:40:12.399Z,6.35
2023-03-31T17:42:41.973Z,5.95
2023-03-31T17:45:13.297Z,5.62
2023-03-31T17:47:45.566Z,5.50
2023-03-31T17:50:15.266Z,7.73
2023-03-31T17:52:45.856Z,6.30
2023-03-31T17:55:15.404Z,6.40
2023-03-31T17:57:45.031Z,6.05
2023-03-31T18:00:17.596Z,5.92
2023-03-31T18:02:47.260Z,6.25
2023-03-31T18:05:29.253Z,7.20
2023-03-31T18:07:49.395Z,6.80
2023-03-31T18:10:19.031Z,14.15
2023-03-31T18:12:48.587Z,13.13
2023-03-31T18:15:18.696Z,10.93
2023-03-31T18:17:49.335Z,16.27
2023-03-31T18:20:20.250Z,8.15
2023-03-31T18:22:51.482Z,7.03
2023-03-31T18:25:21.526Z,7.00
2023-03-31T18:27:51.387Z,6.65
2023-03-31T18:30:21.337Z,5.50
2023-03-31T18:32:50.921Z,5.47
2023-03-31T18:35:23.653Z,6.15
2023-03-31T18:37:53.468Z,8.70
2023-03-31T18:40:24.022Z,9.10
2023-03-31T18:42:53.485Z,9.00
2023-03-31T18:45:24.628Z,7.45
2023-03-31T18:47:55.119Z,9.65
2023-03-31T18:50:26.157Z,8.45
2023-03-31T18:52:56.691Z,7.83
2023-03-31T18:55:26.763Z,10.68
2023-03-31T18:57:58.129Z,11.45
2023-03-31T19:00:27.638Z,9.95
2023-03-31T19:02:57.384Z,8.23
2023-03-31T19:05:27.674Z,10.05
2023-03-31T19:07:57.789Z,14.87
2023-03-31T19:10:28.335Z,11.05
2023-03-31T19:12:58.545Z,8.25
2023-03-31T19:15:28.924Z,7.00
2023-03-31T19:17:59.053Z,8.50
2023-03-31T19:20:28.656Z,16.25
2023-03-31T19:22:59.379Z,12.70
2023-03-31T19:25:28.971Z,8.73
2023-03-31T19:27:59.466Z,8.70
2023-03-31T19:30:29.425Z,6.92
2023-03-31T19:33:00.582Z,10.63
2023-03-31T19:35:30.482Z,10.38
2023-03-31T19:38:00.650Z,8.38
2023-03-31T19:40:30.176Z,7.80
2023-03-31T19:42:59.658Z,9.60
2023-03-31T19:45:29.684Z,11.22
2023-03-31T19:47:59.841Z,6.83
2023-03-31T19:50:29.439Z,7.10
2023-03-31T19:52:59.315Z,9.40
2023-03-31T19:55:28.968Z,6.67
2023-03-31T19:57:59.200Z,10.88
2023-03-31T20:00:28.698Z,7.60
2023-03-31T20:02:58.273Z,6.05
2023-03-31T20:05:29.017Z,7.65
2023-03-31T20:07:58.598Z,11.60
2023-03-31T20:10:28.929Z,10.90
2023-03-31T20:12:58.421Z,10.88
2023-03-31T20:15:28.082Z,9.85
2023-03-31T20:17:57.870Z,7.58
2023-03-31T20:20:28.157Z,11.70
2023-03-31T20:22:59.904Z,9.65
2023-03-31T20:25:29.578Z,7.70
2023-03-31T20:27:59.706Z,7.30
2023-03-31T20:30:29.363Z,8.30
2023-03-31T20:32:58.859Z,6.85
2023-03-31T20:35:28.540Z,6.78
2023-03-31T20:37:58.814Z,7.62
2023-03-31T20:40:28.336Z,6.25
2023-03-31T20:42:57.967Z,6.92
2023-03-31T20:45:27.462Z,7.08
2023-03-31T20:47:57.131Z,6.92
2023-03-31T20:50:27.194Z,8.08
2023-03-31T20:52:56.685Z,8.13
2023-03-31T20:55:27.156Z,7.47
2023-03-31T20:57:56.652Z,7.42
2023-03-31T21:00:26.138Z,6.97
2023-03-31T21:02:57.215Z,6.92
2023-03-31T21:05:26.868Z,6.75
2023-03-31T21:07:57.220Z,6.00
2023-03-31T21:10:26.699Z,5.87
2023-03-31T21:12:56.183Z,7.42
2023-03-31T21:15:25.858Z,7.08
2023-03-31T21:17:55.338Z,7.10
2023-03-31T21:20:24.802Z,6.90
2023-03-31T21:22:56.166Z,6.97
2023-03-31T21:25:26.535Z,6.37
2023-03-31T21:27:56.931Z,7.35
2023-03-31T21:30:26.983Z,29.40
2023-03-31T21:32:56.503Z,10.72
2023-03-31T21:35:26.721Z,8.25
2023-03-31T21:37:56.895Z,8.28
2023-03-31T21:40:26.483Z,6.37
2023-03-31T21:42:56.246Z,6.87
2023-03-31T21:45:25.891Z,12.07
2023-03-31T21:47:55.463Z,11.05
2023-03-31T21:50:24.995Z,9.85
2023-03-31T21:54:14.011Z,8.43
2023-03-31T21:56:45.356Z,9.15
2023-03-31T21:59:15.170Z,10.65
2023-03-31T22:01:44.726Z,7.33
2023-03-31T22:04:14.358Z,7.53
2023-03-31T22:06:44.255Z,6.42
2023-03-31T22:09:13.729Z,6.20
2023-03-31T22:11:43.229Z,5.60
2023-03-31T22:14:12.863Z,5.72
2023-03-31T22:16:43.094Z,6.00
2023-03-31T22:19:15.074Z,6.22
2023-03-31T22:21:45.513Z,6.05
2023-03-31T22:24:15.036Z,5.83
2023-03-31T22:26:44.516Z,8.13
2023-03-31T22:29:17.006Z,6.87
2023-03-31T22:31:46.594Z,6.40
2023-03-31T22:34:17.834Z,6.17
2023-03-31T22:36:48.362Z,6.87
2023-03-31T22:39:20.358Z,7.53
2023-03-31T22:41:51.652Z,6.53
2023-03-31T22:44:21.918Z,6.33
2023-03-31T22:46:51.684Z,6.30
2023-03-31T22:49:21.689Z,6.92
2023-03-31T22:51:52.881Z,5.97
2023-03-31T22:54:22.424Z,6.70
2023-03-31T22:56:52.494Z,5.73
2023-03-31T22:59:22.262Z,5.75
2023-03-31T23:01:55.878Z,5.92
2023-03-31T23:04:26.305Z,6.00
2023-03-31T23:06:56.307Z,5.83
2023-03-31T23:09:27.281Z,11.95
2023-03-31T23:11:56.781Z,6.47
2023-03-31T23:14:27.033Z,4.92
2023-03-31T23:16:56.996Z,5.90
2023-03-31T23:19:27.230Z,6.15
2023-03-31T23:21:58.358Z,5.65
2023-03-31T23:24:29.358Z,6.30
2023-03-31T23:26:58.857Z,6.40
2023-03-31T23:29:30.928Z,6.12
2023-03-31T23:32:00.514Z,5.90
2023-03-31T23:34:30.071Z,5.87
2023-03-31T23:36:59.814Z,4.97
2023-03-31T23:39:29.383Z,6.22
2023-03-31T23:41:59.052Z,5.60
2023-03-31T23:44:29.438Z,5.15
2023-03-31T23:46:59.498Z,5.15
2023-03-31T23:49:28.965Z,6.05
2023-03-31T23:52:00.107Z,5.75
2023-03-31T23:54:30.714Z,5.92
2023-03-31T23:57:00.487Z,5.37
2023-03-31T23:59:30.768Z,5.45
